Time;durP1;ratioP1;P1;durP2;ratioP2;P2;SDS_P1;SDS_P2;PMS_P1;PMS_P2;Temp;Humidity;BMP_temperature;BMP_pressure;BME280_temperature;BME280_humidity;BME280_pressure;Samples;Min_cycle;Max_cycle;Signal;HPM_P1;HPM_P2
2022/12/24 00:01:53;;;;;;;1.38;1.05;;;22.10;49.80;;;;;;6085935;23;20030;-63
2022/12/24 00:04:19;;;;;;;1.70;1.05;;;22.10;49.80;;;;;;6087253;23;20061;-62
2022/12/24 00:06:46;;;;;;;2.10;1.05;;;22.10;49.80;;;;;;6086491;23;20019;-63
2022/12/24 00:09:11;;;;;;;2.95;1.45;;;22.10;49.80;;;;;;6086431;23;20018;-62
2022/12/24 00:11:37;;;;;;;1.17;0.82;;;22.00;49.80;;;;;;6088664;23;20343;-63
2022/12/24 00:14:03;;;;;;;1.80;1.02;;;22.00;49.80;;;;;;6086571;23;20098;-62
2022/12/24 00:16:29;;;;;;;3.38;1.23;;;22.00;49.80;;;;;;6086385;23;20022;-62
2022/12/24 00:18:54;;;;;;;1.77;1.20;;;22.00;49.80;;;;;;6086557;23;20110;-63
2022/12/24 00:21:20;;;;;;;1.70;1.10;;;22.00;49.80;;;;;;6087846;23;20034;-62
2022/12/24 00:23:46;;;;;;;1.15;0.93;;;21.90;49.80;;;;;;6088672;23;20094;-63
2022/12/24 00:26:13;;;;;;;1.45;1.00;;;21.90;49.80;;;;;;6086488;23;20511;-63
2022/12/24 00:28:39;;;;;;;1.75;1.15;;;21.90;49.80;;;;;;6085902;23;20081;-62
2022/12/24 00:31:14;;;;;;;2.47;1.10;;;21.90;49.80;;;;;;6037732;23;20105;-63
2022/12/24 00:33:40;;;;;;;1.50;0.80;;;21.90;49.70;;;;;;6088796;23;20383;-62
2022/12/24 00:36:06;;;;;;;1.70;0.93;;;21.90;49.80;;;;;;6086637;23;20026;-64
2022/12/24 00:38:32;;;;;;;1.15;0.77;;;21.80;49.80;;;;;;6087773;23;20022;-62
2022/12/24 00:41:00;;;;;;;1.08;0.77;;;21.90;49.80;;;;;;6088250;23;20387;-62
2022/12/24 00:43:27;;;;;;;1.33;0.60;;;21.80;49.80;;;;;;6087728;23;20021;-62
2022/12/24 00:45:52;;;;;;;2.33;1.05;;;21.80;49.80;;;;;;6088543;23;20018;-62
2022/12/24 00:48:18;;;;;;;1.38;1.08;;;21.80;49.80;;;;;;6086613;23;20495;-62
2022/12/24 00:50:43;;;;;;;2.28;0.63;;;21.80;49.80;;;;;;6087368;23;20098;-63
2022/12/24 00:53:09;;;;;;;2.17;1.08;;;21.80;49.70;;;;;;6088015;23;20041;-63
2022/12/24 00:55:35;;;;;;;1.88;1.05;;;21.70;49.70;;;;;;6086868;23;20018;-63
2022/12/24 00:58:00;;;;;;;1.90;1.13;;;21.70;49.70;;;;;;6062263;23;20028;-64
2022/12/24 01:00:26;;;;;;;2.20;1.00;;;21.70;49.70;;;;;;6088322;23;20011;-62
2022/12/24 01:02:52;;;;;;;1.45;0.60;;;21.70;49.70;;;;;;6086503;23;20014;-62
2022/12/24 01:05:19;;;;;;;1.15;0.60;;;21.70;49.70;;;;;;6088389;23;20018;-63
2022/12/24 01:07:46;;;;;;;1.45;0.77;;;21.70;49.70;;;;;;6088270;23;20023;-63
2022/12/24 01:10:18;;;;;;;1.58;0.88;;;21.70;49.70;;;;;;6086471;23;20040;-63
2022/12/24 01:12:45;;;;;;;1.42;0.60;;;21.60;49.70;;;;;;6085832;23;20026;-63
2022/12/24 01:15:12;;;;;;;1.10;0.70;;;21.60;49.60;;;;;;6086660;23;20023;-63
2022/12/24 01:17:39;;;;;;;0.90;0.60;;;21.60;49.70;;;;;;6088180;23;20513;-63
2022/12/24 01:20:07;;;;;;;1.00;0.60;;;21.60;49.80;;;;;;6088703;23;20014;-63
2022/12/24 01:22:32;;;;;;;1.05;0.80;;;21.60;49.60;;;;;;6061362;23;20029;-62
2022/12/24 01:24:58;;;;;;;0.95;0.55;;;21.60;49.70;;;;;;6085793;23;20018;-62
2022/12/24 01:27:24;;;;;;;0.60;0.45;;;21.50;49.60;;;;;;6086019;23;20023;-62
2022/12/24 01:29:49;;;;;;;1.00;0.70;;;21.50;49.70;;;;;;6087484;23;20026;-62
2022/12/24 01:32:15;;;;;;;0.80;0.70;;;21.50;49.70;;;;;;6086568;23;20102;-63
2022/12/24 01:34:41;;;;;;;2.20;0.77;;;21.50;49.70;;;;;;6087461;23;20010;-63
2022/12/24 01:37:06;;;;;;;0.93;0.60;;;21.50;49.70;;;;;;6087044;23;20031;-62
2022/12/24 01:39:32;;;;;;;1.88;0.75;;;21.50;49.80;;;;;;6062742;23;20029;-62
2022/12/24 01:44:44;;;;;;;1.30;0.70;;;21.40;49.70;;;;;;6088297;23;20022;-62
2022/12/24 01:47:26;;;;;;;1.77;0.75;;;21.40;49.70;;;;;;6086756;23;20096;-63
2022/12/24 01:49:57;;;;;;;1.67;0.90;;;21.40;49.60;;;;;;6088513;23;20018;-63
2022/12/24 01:52:31;;;;;;;2.35;0.90;;;21.40;49.80;;;;;;6059775;23;20045;-63
2022/12/24 01:55:02;;;;;;;1.40;0.80;;;21.40;49.70;;;;;;6086518;23;20015;-62
2022/12/24 01:57:36;;;;;;;2.17;0.93;;;21.40;49.80;;;;;;6087883;23;20017;-63
2022/12/24 02:00:10;;;;;;;1.90;0.75;;;21.40;49.80;;;;;;6086783;23;20053;-64
2022/12/24 02:02:38;;;;;;;1.33;0.98;;;21.40;49.80;;;;;;6087022;23;20036;-63
2022/12/24 02:05:11;;;;;;;1.75;1.00;;;21.30;49.80;;;;;;6085163;23;20125;-63
2022/12/24 02:07:37;;;;;;;3.17;1.30;;;21.30;49.90;;;;;;6085597;23;20360;-62
2022/12/24 02:10:07;;;;;;;1.88;1.02;;;21.30;49.80;;;;;;6063271;23;20018;-63
2022/12/24 02:12:36;;;;;;;2.85;0.98;;;21.30;49.90;;;;;;6086195;23;20025;-63
2022/12/24 02:15:03;;;;;;;2.80;1.02;;;21.30;50.00;;;;;;6089006;23;20889;-62
2022/12/24 02:17:39;;;;;;;3.17;1.05;;;21.30;49.90;;;;;;6088366;23;20014;-61
2022/12/24 02:20:35;;;;;;;1.80;0.85;;;21.30;49.80;;;;;;6087988;23;20057;-62
2022/12/24 02:23:27;;;;;;;5.25;1.75;;;21.30;49.80;;;;;;6087392;23;20029;-63
2022/12/24 02:25:52;;;;;;;3.08;1.20;;;21.20;49.70;;;;;;6080739;23;20030;-61
2022/12/24 02:28:59;;;;;;;3.60;1.13;;;21.20;49.90;;;;;;6087905;23;20370;-61
2022/12/24 02:31:37;;;;;;;3.63;1.40;;;21.20;49.90;;;;;;6085640;23;20029;-62
2022/12/24 02:34:07;;;;;;;2.83;1.30;;;21.20;49.90;;;;;;6087459;23;20170;-61
2022/12/24 02:37:09;;;;;;;3.28;1.20;;;21.20;49.90;;;;;;6087020;23;20022;-63
2022/12/24 02:40:06;;;;;;;2.90;1.20;;;21.10;49.70;;;;;;6073312;23;20029;-62
2022/12/24 02:42:40;;;;;;;4.55;1.38;;;21.10;49.90;;;;;;6087845;23;20093;-62
2022/12/24 02:45:10;;;;;;;4.78;1.80;;;21.10;49.90;;;;;;6085089;23;20070;-62
2022/12/24 02:47:38;;;;;;;3.58;1.25;;;21.10;49.90;;;;;;6086989;23;20086;-62
2022/12/24 02:50:07;;;;;;;3.58;1.40;;;21.10;50.00;;;;;;6061753;23;20049;-62
2022/12/24 02:52:39;;;;;;;3.80;1.40;;;21.10;49.90;;;;;;6087264;23;20018;-64
2022/12/24 02:55:11;;;;;;;4.40;1.77;;;21.10;49.90;;;;;;6087611;23;20015;-63
2022/12/24 02:58:01;;;;;;;4.60;1.38;;;21.10;49.90;;;;;;6086957;23;20021;-63
2022/12/24 03:00:46;;;;;;;4.78;1.40;;;21.10;49.90;;;;;;6089326;23;20022;-63
2022/12/24 03:03:25;;;;;;;3.42;1.50;;;21.00;49.90;;;;;;6087464;23;20014;-63
2022/12/24 03:06:04;;;;;;;3.55;1.50;;;21.00;49.90;;;;;;6087865;23;20098;-62
2022/12/24 03:08:47;;;;;;;4.18;1.25;;;21.00;49.90;;;;;;6088337;23;20021;-63
2022/12/24 03:11:14;;;;;;;3.72;1.55;;;21.00;49.90;;;;;;6087438;23;20014;-62
2022/12/24 03:13:41;;;;;;;5.35;1.67;;;21.00;50.00;;;;;;6089567;23;20025;-63
2022/12/24 03:16:12;;;;;;;4.90;1.67;;;20.90;49.80;;;;;;6087137;23;20629;-63
2022/12/24 03:18:41;;;;;;;3.38;1.40;;;20.90;49.80;;;;;;6087288;23;20026;-63
2022/12/24 03:21:20;;;;;;;4.18;1.58;;;21.00;50.00;;;;;;6087106;23;20030;-63
2022/12/24 03:23:46;;;;;;;5.65;1.58;;;20.90;49.90;;;;;;6089770;23;20022;-63
2022/12/24 03:26:14;;;;;;;6.15;2.05;;;20.90;50.00;;;;;;6085846;23;20069;-62
2022/12/24 03:28:42;;;;;;;4.30;1.58;;;20.90;49.90;;;;;;6089081;23;20022;-62
2022/12/24 03:31:08;;;;;;;6.10;2.08;;;20.90;50.00;;;;;;6085547;23;20018;-63
2022/12/24 03:33:34;;;;;;;3.97;1.80;;;20.90;50.00;;;;;;6085274;23;20026;-63
2022/12/24 03:36:00;;;;;;;4.38;1.90;;;20.90;50.00;;;;;;6085889;23;20037;-62
2022/12/24 03:38:26;;;;;;;5.90;1.85;;;20.90;49.90;;;;;;6088860;23;20445;-63
2022/12/24 03:40:52;;;;;;;6.65;2.03;;;20.90;50.00;;;;;;6088777;23;20010;-63
2022/12/24 03:43:17;;;;;;;4.45;2.10;;;20.90;50.00;;;;;;6088937;23;20014;-63
2022/12/24 03:45:43;;;;;;;4.07;1.90;;;20.80;49.80;;;;;;6088649;23;20018;-62
2022/12/24 03:48:09;;;;;;;3.85;1.38;;;20.80;49.90;;;;;;6085806;23;20077;-63
2022/12/24 03:50:35;;;;;;;4.47;1.85;;;20.80;50.00;;;;;;6063225;23;20328;-62
2022/12/24 03:53:00;;;;;;;6.05;1.88;;;20.80;50.00;;;;;;6062435;23;20412;-62
2022/12/24 03:55:26;;;;;;;6.18;2.15;;;20.80;50.00;;;;;;6087289;23;20050;-63
2022/12/24 03:57:52;;;;;;;3.95;1.85;;;20.80;50.00;;;;;;6087666;23;20505;-62
2022/12/24 04:00:18;;;;;;;4.05;1.75;;;20.80;50.00;;;;;;6089010;23;20015;-63
2022/12/24 04:02:43;;;;;;;4.90;1.83;;;20.80;50.00;;;;;;6087408;23;20010;-63
2022/12/24 04:05:15;;;;;;;4.18;2.00;;;20.80;50.00;;;;;;6087804;23;20011;-62
2022/12/24 04:07:40;;;;;;;5.30;1.90;;;20.80;50.00;;;;;;6085699;23;20111;-61
2022/12/24 04:10:07;;;;;;;3.42;1.58;;;20.70;49.90;;;;;;6088516;23;20629;-62
2022/12/24 04:12:32;;;;;;;4.97;1.95;;;20.70;50.00;;;;;;6086084;23;20021;-63
2022/12/24 04:14:58;;;;;;;4.78;1.83;;;20.70;50.00;;;;;;6089025;23;20089;-63
2022/12/24 04:17:23;;;;;;;4.93;1.83;;;20.70;50.00;;;;;;6086743;23;20073;-63
2022/12/24 04:19:49;;;;;;;5.15;2.03;;;20.70;50.00;;;;;;6089489;23;20343;-63
2022/12/24 04:22:15;;;;;;;5.35;1.65;;;20.70;50.00;;;;;;6085796;23;20018;-63
2022/12/24 04:24:40;;;;;;;5.65;1.98;;;20.70;50.00;;;;;;6087627;23;20105;-61
2022/12/24 04:27:06;;;;;;;4.78;2.20;;;20.70;50.00;;;;;;6087035;23;20015;-63
2022/12/24 04:29:32;;;;;;;5.55;1.92;;;20.70;50.10;;;;;;6087126;23;20340;-63
2022/12/24 04:31:57;;;;;;;6.57;1.90;;;20.70;50.00;;;;;;6087288;23;20010;-63
2022/12/24 04:34:23;;;;;;;3.85;1.70;;;20.70;50.10;;;;;;6087084;23;20022;-63
2022/12/24 04:36:48;;;;;;;5.78;2.20;;;20.70;50.10;;;;;;6086517;23;20101;-63
2022/12/24 04:39:15;;;;;;;4.07;1.90;;;20.70;50.10;;;;;;6089075;23;20022;-63
2022/12/24 04:41:41;;;;;;;4.75;1.55;;;20.70;50.10;;;;;;6087779;23;20730;-63
2022/12/24 04:44:08;;;;;;;6.18;2.30;;;20.60;50.10;;;;;;6086404;23;20018;-62
2022/12/24 04:46:34;;;;;;;3.92;1.77;;;20.60;50.10;;;;;;6085976;23;20018;-63
2022/12/24 04:49:00;;;;;;;4.60;2.00;;;20.60;50.20;;;;;;6087114;23;20050;-62
2022/12/24 04:51:27;;;;;;;5.53;2.17;;;20.60;50.10;;;;;;6088098;23;20018;-63
2022/12/24 04:53:54;;;;;;;7.60;2.45;;;20.60;50.10;;;;;;6088706;23;20014;-62
2022/12/24 04:56:31;;;;;;;5.00;1.80;;;20.60;50.10;;;;;;6062487;23;20451;-63
2022/12/24 04:58:58;;;;;;;6.07;2.17;;;20.60;50.10;;;;;;6088073;23;20820;-62
2022/12/24 05:01:28;;;;;;;4.78;1.80;;;20.60;50.20;;;;;;6085845;23;20022;-63
2022/12/24 05:03:54;;;;;;;5.28;2.38;;;20.60;50.10;;;;;;6086197;23;20145;-63
2022/12/24 05:06:23;;;;;;;5.22;2.10;;;20.50;50.10;;;;;;6088404;23;20018;-62
2022/12/24 05:08:49;;;;;;;7.85;2.65;;;20.50;50.10;;;;;;6086686;23;20014;-62
2022/12/24 05:11:15;;;;;;;5.80;2.15;;;20.50;50.10;;;;;;6087384;23;20102;-63
2022/12/24 05:13:42;;;;;;;6.80;2.30;;;20.50;50.10;;;;;;6088650;23;20018;-62
2022/12/24 05:16:09;;;;;;;5.60;1.77;;;20.50;50.10;;;;;;6087978;23;20014;-62
2022/12/24 05:18:35;;;;;;;6.25;1.88;;;20.50;50.10;;;;;;6088828;23;20029;-62
2022/12/24 05:21:00;;;;;;;7.20;2.72;;;20.50;50.10;;;;;;6085946;23;20026;-62
2022/12/24 05:26:27;;;;;;;6.57;2.13;;;20.50;50.10;;;;;;6087503;23;20026;-62
2022/12/24 05:28:55;;;;;;;6.30;2.20;;;20.50;50.10;;;;;;6086592;23;20025;-61
2022/12/24 05:31:23;;;;;;;6.07;2.10;;;20.50;50.20;;;;;;6087560;23;20377;-62
2022/12/24 05:33:48;;;;;;;7.75;2.03;;;20.40;50.10;;;;;;6086511;23;20010;-62
2022/12/24 05:36:15;;;;;;;5.38;2.10;;;20.40;50.10;;;;;;6086720;23;20026;-62
2022/12/24 05:38:41;;;;;;;4.93;1.90;;;20.40;50.10;;;;;;6062190;23;20074;-62
2022/12/24 05:41:08;;;;;;;4.78;2.10;;;20.40;50.10;;;;;;6087927;23;20011;-62
2022/12/24 05:43:35;;;;;;;8.32;2.55;;;20.40;50.00;;;;;;6086269;23;20029;-62
2022/12/24 05:46:05;;;;;;;5.32;2.22;;;20.40;50.10;;;;;;6088327;23;20058;-62
2022/12/24 05:48:31;;;;;;;6.40;2.17;;;20.40;50.10;;;;;;6085328;23;20014;-63
2022/12/24 05:50:57;;;;;;;5.57;2.17;;;20.40;50.00;;;;;;6088190;23;20017;-62
2022/12/24 05:53:22;;;;;;;5.13;2.17;;;20.40;50.00;;;;;;6086300;23;20014;-62
2022/12/24 05:55:48;;;;;;;6.32;2.22;;;20.40;50.00;;;;;;6086493;23;20081;-62
2022/12/24 05:58:14;;;;;;;3.90;2.10;;;20.40;50.10;;;;;;6086619;23;20030;-62
2022/12/24 06:00:40;;;;;;;5.57;1.73;;;20.40;50.10;;;;;;6088800;23;20020;-62
2022/12/24 06:03:06;;;;;;;5.05;1.80;;;20.40;50.10;;;;;;6085910;23;20503;-61
2022/12/24 06:05:31;;;;;;;4.88;1.70;;;20.40;50.00;;;;;;6088036;23;20014;-62
2022/12/24 06:07:57;;;;;;;6.63;2.17;;;20.40;50.00;;;;;;6088027;23;20093;-62
2022/12/24 06:10:23;;;;;;;5.05;2.00;;;20.40;50.00;;;;;;6088542;23;20692;-62
2022/12/24 06:12:48;;;;;;;5.60;2.15;;;20.30;50.00;;;;;;6060801;23;20015;-62
2022/12/24 06:15:14;;;;;;;6.43;1.98;;;20.30;50.00;;;;;;6087252;23;20055;-62
2022/12/24 06:17:40;;;;;;;4.93;1.83;;;20.30;50.00;;;;;;6086171;23;20300;-62
2022/12/24 06:20:06;;;;;;;6.15;1.83;;;20.30;50.10;;;;;;6088498;23;20301;-62
2022/12/24 06:22:32;;;;;;;4.68;1.58;;;20.30;50.00;;;;;;6085411;23;20021;-62
2022/12/24 06:24:57;;;;;;;4.85;1.98;;;20.30;50.00;;;;;;6088249;23;20010;-61
2022/12/24 06:27:23;;;;;;;5.35;2.00;;;20.30;50.00;;;;;;6084739;23;20018;-62
2022/12/24 06:29:48;;;;;;;4.32;2.00;;;20.30;50.00;;;;;;6087710;23;20018;-62
2022/12/24 06:32:14;;;;;;;5.93;2.00;;;20.30;49.90;;;;;;6085399;23;20026;-62
2022/12/24 06:34:40;;;;;;;4.90;1.92;;;20.30;49.90;;;;;;6087991;23;20053;-62
2022/12/24 06:37:05;;;;;;;4.78;2.00;;;20.30;49.90;;;;;;6085946;23;20018;-62
2022/12/24 06:39:31;;;;;;;9.30;2.60;;;20.30;49.90;;;;;;6085206;23;20018;-63
2022/12/24 06:41:57;;;;;;;4.68;2.03;;;20.30;49.90;;;;;;6086566;23;20022;-61
2022/12/24 06:44:22;;;;;;;8.05;1.90;;;20.30;49.90;;;;;;6085343;23;20014;-63
2022/12/24 06:46:48;;;;;;;5.60;2.00;;;20.30;50.00;;;;;;6086896;23;20412;-63
2022/12/24 06:49:14;;;;;;;5.88;2.20;;;20.30;50.10;;;;;;6085423;23;20026;-62
2022/12/24 06:51:40;;;;;;;8.20;2.50;;;20.30;50.00;;;;;;6084635;23;20117;-62
2022/12/24 06:54:06;;;;;;;5.93;2.22;;;20.20;50.00;;;;;;6084277;23;20019;-62
2022/12/24 06:56:31;;;;;;;7.93;2.55;;;20.20;50.00;;;;;;6059816;23;20029;-62
2022/12/24 06:58:57;;;;;;;6.80;2.33;;;20.20;50.10;;;;;;6084509;23;20407;-63
2022/12/24 07:01:23;;;;;;;6.03;2.55;;;20.20;50.00;;;;;;6084662;23;20022;-63
2022/12/24 07:03:49;;;;;;;5.95;2.40;;;20.20;50.00;;;;;;6086334;23;20450;-62
2022/12/24 07:06:23;;;;;;;5.80;2.00;;;20.20;50.00;;;;;;6086526;23;20070;-63
2022/12/24 07:08:49;;;;;;;5.80;2.22;;;20.20;50.00;;;;;;6087094;23;20022;-62
2022/12/24 07:11:15;;;;;;;8.63;2.70;;;20.20;50.00;;;;;;6086613;23;20530;-60
2022/12/24 07:13:41;;;;;;;7.22;2.47;;;20.20;50.00;;;;;;6083865;23;20010;-61
2022/12/24 07:16:06;;;;;;;6.25;2.25;;;20.10;50.00;;;;;;6086541;23;20320;-63
2022/12/24 07:18:32;;;;;;;7.90;2.88;;;20.10;50.00;;;;;;6085634;23;20015;-62
2022/12/24 07:20:58;;;;;;;6.65;2.25;;;20.10;50.00;;;;;;6085900;23;20033;-62
2022/12/24 07:23:24;;;;;;;6.03;2.38;;;20.20;50.20;;;;;;6084009;23;20346;-62
2022/12/24 07:25:50;;;;;;;6.90;2.40;;;20.50;50.00;;;;;;6084248;23;20324;-62
2022/12/24 07:28:15;;;;;;;8.00;2.22;;;20.90;49.30;;;;;;6085963;23;20018;-63
2022/12/24 07:30:41;;;;;;;6.68;2.13;;;21.20;48.60;;;;;;6084742;23;20061;-62
2022/12/24 07:33:07;;;;;;;7.47;2.53;;;21.40;48.20;;;;;;6085381;23;20011;-63
2022/12/24 07:35:33;;;;;;;5.63;2.22;;;21.50;47.90;;;;;;6084872;23;20037;-62
2022/12/24 07:37:58;;;;;;;5.97;2.00;;;21.70;47.70;;;;;;6086191;23;20077;-63
2022/12/24 07:40:24;;;;;;;5.72;2.22;;;21.80;47.60;;;;;;6085736;23;20466;-62
2022/12/24 07:42:50;;;;;;;6.22;2.40;;;21.90;47.50;;;;;;6083841;23;20169;-63
2022/12/24 07:45:16;;;;;;;6.32;2.47;;;22.00;47.50;;;;;;6088209;23;20014;-63
2022/12/24 07:47:41;;;;;;;7.10;2.47;;;22.00;47.40;;;;;;6088644;23;20124;-63
2022/12/24 07:50:08;;;;;;;7.53;2.40;;;22.00;47.30;;;;;;6090059;23;20018;-62
2022/12/24 07:52:35;;;;;;;5.03;2.10;;;22.10;47.50;;;;;;6086736;23;20029;-63
2022/12/24 07:55:00;;;;;;;8.13;2.28;;;22.10;47.50;;;;;;6086871;23;20011;-62
2022/12/24 07:57:26;;;;;;;7.57;2.58;;;22.10;47.50;;;;;;6088741;23;20164;-61
2022/12/24 07:59:51;;;;;;;7.53;2.67;;;22.20;47.70;;;;;;6084897;23;20014;-62
2022/12/24 08:02:17;;;;;;;6.43;2.13;;;22.20;47.70;;;;;;6086097;23;20470;-63
2022/12/24 08:04:43;;;;;;;7.47;2.00;;;22.20;47.80;;;;;;6083942;23;20093;-63
2022/12/24 08:07:08;;;;;;;6.25;2.17;;;22.30;47.80;;;;;;6062717;23;20014;-63
2022/12/24 08:09:35;;;;;;;10.23;2.80;;;22.30;47.80;;;;;;6087244;23;20049;-63
2022/12/24 08:12:02;;;;;;;7.50;2.13;;;22.40;47.80;;;;;;6086978;23;20447;-64
2022/12/24 08:14:30;;;;;;;9.20;2.45;;;22.40;47.80;;;;;;6064118;23;20018;-64
2022/12/24 08:16:57;;;;;;;5.32;1.85;;;22.40;47.70;;;;;;6063983;23;20026;-65
2022/12/24 08:19:24;;;;;;;5.85;2.33;;;22.50;47.80;;;;;;6064915;23;20053;-62
2022/12/24 08:21:50;;;;;;;6.35;2.60;;;22.50;47.70;;;;;;6089605;23;20021;-62
2022/12/24 08:24:23;;;;;;;6.78;2.50;;;22.50;47.80;;;;;;6087311;23;20011;-63
2022/12/24 08:26:49;;;;;;;6.75;2.28;;;22.50;47.70;;;;;;6085691;23;20443;-63
2022/12/24 08:29:15;;;;;;;9.00;2.17;;;22.50;47.80;;;;;;6084681;23;20019;-62
2022/12/24 08:31:41;;;;;;;5.47;1.88;;;22.50;47.80;;;;;;6086442;23;20085;-62
2022/12/24 08:34:08;;;;;;;6.40;1.98;;;22.50;48.00;;;;;;6085892;23;20360;-65
2022/12/24 08:36:34;;;;;;;8.73;2.45;;;22.50;47.90;;;;;;6083412;23;20105;-63
2022/12/24 08:39:02;;;;;;;4.68;2.00;;;22.50;47.90;;;;;;6088494;23;20045;-63
2022/12/24 08:41:31;;;;;;;7.65;2.17;;;22.50;47.90;;;;;;6060634;23;20025;-63
2022/12/24 08:43:58;;;;;;;6.63;2.22;;;22.50;47.80;;;;;;6083209;23;20025;-63
2022/12/24 08:46:23;;;;;;;9.23;2.40;;;22.50;47.80;;;;;;6085209;23;20023;-62
2022/12/24 08:48:49;;;;;;;5.20;2.22;;;22.50;48.60;;;;;;6088604;23;20342;-63
2022/12/24 08:51:15;;;;;;;10.88;2.55;;;22.50;48.80;;;;;;6085673;23;20455;-63
2022/12/24 08:53:41;;;;;;;7.65;2.28;;;22.50;48.10;;;;;;6088200;23;20514;-63
2022/12/24 08:56:08;;;;;;;7.20;2.30;;;22.50;48.20;;;;;;6085189;23;20018;-63
2022/12/24 08:58:35;;;;;;;7.47;2.38;;;22.50;48.20;;;;;;6086243;23;20024;-62
2022/12/24 09:01:01;;;;;;;4.55;1.92;;;22.50;48.30;;;;;;6087012;23;20014;-64
2022/12/24 09:03:26;;;;;;;9.00;2.72;;;22.50;48.50;;;;;;6087574;23;20066;-64
2022/12/24 09:05:52;;;;;;;8.95;2.28;;;22.50;48.60;;;;;;6086658;23;20057;-63
2022/12/24 09:08:19;;;;;;;9.23;2.45;;;22.60;48.80;;;;;;6085284;23;20026;-64
2022/12/24 09:10:45;;;;;;;5.97;2.42;;;22.60;48.90;;;;;;6087597;23;20065;-64
2022/12/24 09:13:11;;;;;;;8.50;2.47;;;22.60;49.00;;;;;;6087918;23;20495;-64
2022/12/24 09:15:37;;;;;;;7.15;2.05;;;22.60;49.10;;;;;;6088253;23;20340;-63
2022/12/24 09:18:03;;;;;;;6.57;2.22;;;22.60;49.10;;;;;;6086463;23;20033;-63
2022/12/24 09:20:29;;;;;;;9.98;2.90;;;22.60;49.20;;;;;;6083112;23;20042;-64
2022/12/24 09:22:54;;;;;;;7.18;2.47;;;22.60;49.10;;;;;;6058183;23;20054;-63
2022/12/24 09:25:20;;;;;;;8.85;2.35;;;22.60;49.30;;;;;;6088269;23;20324;-63
2022/12/24 09:27:46;;;;;;;8.68;2.80;;;22.70;49.30;;;;;;6086118;23;20019;-63
2022/12/24 09:30:12;;;;;;;6.93;2.28;;;22.70;50.10;;;;;;6087603;23;20014;-63
2022/12/24 09:32:38;;;;;;;10.02;2.42;;;22.70;49.40;;;;;;6083856;23;20007;-63
2022/12/24 09:35:04;;;;;;;7.53;2.20;;;22.70;49.40;;;;;;6084292;23;20093;-64
2022/12/24 09:37:29;;;;;;;6.65;2.30;;;22.60;49.30;;;;;;6059979;23;20589;-64
2022/12/24 09:39:55;;;;;;;7.47;2.40;;;22.60;49.30;;;;;;6085275;23;20018;-61
2022/12/24 09:42:20;;;;;;;8.65;2.40;;;22.60;49.30;;;;;;6086495;23;20344;-63
2022/12/24 09:44:54;;;;;;;8.32;2.38;;;22.60;49.20;;;;;;6059647;23;20413;-63
2022/12/24 09:47:37;;;;;;;7.28;2.20;;;22.60;49.30;;;;;;6086001;23;20058;-61
2022/12/24 09:50:20;;;;;;;10.07;2.00;;;22.60;49.20;;;;;;6084686;23;20121;-61
2022/12/24 09:52:47;;;;;;;7.85;2.70;;;22.60;49.20;;;;;;6086332;23;20010;-63
2022/12/24 09:55:28;;;;;;;8.05;2.05;;;22.70;49.30;;;;;;6086078;23;20037;-63
2022/12/24 09:57:55;;;;;;;5.30;2.33;;;22.70;49.30;;;;;;6085695;23;20025;-62
2022/12/24 10:00:26;;;;;;;10.07;2.42;;;22.70;49.30;;;;;;6086240;23;20049;-62
2022/12/24 10:02:52;;;;;;;8.57;2.28;;;22.60;49.20;;;;;;6086109;23;20015;-62
2022/12/24 10:05:40;;;;;;;7.90;2.70;;;22.60;50.00;;;;;;6084492;23;20017;-62
2022/12/24 10:08:20;;;;;;;9.40;2.47;;;22.60;49.20;;;;;;6052978;23;20026;-61
2022/12/24 10:10:51;;;;;;;12.45;3.35;;;22.70;49.20;;;;;;6081532;23;20025;-62
2022/12/24 10:13:42;;;;;;;10.25;3.05;;;22.70;49.20;;;;;;6058753;23;20117;-62
2022/12/24 10:16:12;;;;;;;10.10;2.58;;;22.60;49.00;;;;;;6084523;23;20026;-62
2022/12/24 10:18:49;;;;;;;7.45;2.45;;;22.60;49.20;;;;;;6086111;23;20049;-61
2022/12/24 10:21:29;;;;;;;6.90;2.45;;;22.60;49.10;;;;;;6082047;23;20023;-63
2022/12/24 10:24:18;;;;;;;9.48;2.90;;;22.70;49.10;;;;;;6083923;23;20026;-62
2022/12/24 10:26:59;;;;;;;10.10;2.53;;;22.60;49.00;;;;;;6082268;23;20018;-62
2022/12/24 10:29:30;;;;;;;;;;;22.60;49.00;;;;;;6060360;23;20053;-62
2022/12/24 10:31:59;;;;;;;;;;;22.60;48.90;;;;;;6081867;23;19968;-63
2022/12/24 10:34:30;;;;;;;8.82;2.83;;;22.60;48.80;;;;;;6084318;23;20626;-62
2022/12/24 10:36:57;;;;;;;7.05;2.65;;;22.60;48.90;;;;;;6085512;23;20062;-63
2022/12/24 10:39:25;;;;;;;8.00;3.03;;;22.60;48.70;;;;;;6085398;23;20022;-63
2022/12/24 10:41:56;;;;;;;9.45;2.92;;;22.70;48.60;;;;;;6085848;23;20018;-62
2022/12/24 10:44:26;;;;;;;9.77;2.40;;;22.70;48.60;;;;;;6084445;23;20549;-62
2022/12/24 10:46:53;;;;;;;9.55;3.03;;;22.70;49.30;;;;;;6085564;23;20019;-61
2022/12/24 10:49:34;;;;;;;8.57;2.50;;;22.60;48.50;;;;;;6086753;23;20021;-62
2022/12/24 10:52:10;;;;;;;5.60;2.50;;;22.70;48.60;;;;;;6086228;23;20344;-62
2022/12/24 10:54:39;;;;;;;7.38;2.50;;;22.70;48.60;;;;;;6086917;23;20017;-62
2022/12/24 10:57:22;;;;;;;7.03;2.65;;;22.70;48.60;;;;;;6087092;23;20045;-62
2022/12/24 10:59:55;;;;;;;8.00;3.20;;;22.70;48.50;;;;;;6086983;23;20018;-62
2022/12/24 11:02:33;;;;;;;7.63;2.70;;;22.60;48.40;;;;;;6060742;23;20487;-62
2022/12/24 11:05:00;;;;;;;7.97;2.67;;;22.70;48.40;;;;;;6085635;23;20086;-62
2022/12/24 11:07:28;;;;;;;7.95;2.65;;;22.70;48.40;;;;;;6085643;23;20018;-62
2022/12/24 11:09:55;;;;;;;9.73;3.30;;;22.60;48.30;;;;;;6087384;23;20025;-62
2022/12/24 11:12:24;;;;;;;9.43;3.38;;;22.70;48.30;;;;;;6060808;23;20018;-61
2022/12/24 11:15:03;;;;;;;9.48;3.15;;;22.70;48.30;;;;;;6085591;23;20014;-61
2022/12/24 11:17:29;;;;;;;6.63;3.00;;;22.70;48.30;;;;;;6087061;23;20026;-61
2022/12/24 11:19:56;;;;;;;10.07;3.70;;;22.70;48.40;;;;;;6087630;23;20018;-62
2022/12/24 11:22:27;;;;;;;10.20;3.60;;;22.70;48.30;;;;;;6088991;23;20478;-62
2022/12/24 11:25:18;;;;;;;9.70;3.58;;;22.70;48.30;;;;;;6087560;23;20040;-62
2022/12/24 11:27:49;;;;;;;7.50;2.83;;;22.70;48.20;;;;;;6088910;23;20010;-62
2022/12/24 11:30:14;;;;;;;8.98;3.33;;;22.70;48.30;;;;;;6087314;23;20022;-63
2022/12/24 11:32:44;;;;;;;7.07;2.97;;;22.70;48.40;;;;;;6086358;23;20045;-62
2022/12/24 11:35:22;;;;;;;8.00;3.17;;;22.70;48.30;;;;;;6086343;23;20089;-62
2022/12/24 11:38:07;;;;;;;7.00;2.83;;;22.70;48.30;;;;;;6085853;23;20018;-62
2022/12/24 11:40:42;;;;;;;7.75;3.10;;;22.70;48.40;;;;;;6088552;23;20015;-62
2022/12/24 11:43:15;;;;;;;6.47;3.20;;;22.70;48.40;;;;;;6083638;23;20021;-62
2022/12/24 11:45:55;;;;;;;7.90;3.28;;;22.70;48.40;;;;;;6086739;23;20355;-62
2022/12/24 11:48:25;;;;;;;8.80;3.22;;;22.70;48.50;;;;;;6084654;23;20025;-63
2022/12/24 11:51:06;;;;;;;7.25;2.70;;;22.70;48.40;;;;;;6085949;23;20018;-62
2022/12/24 11:53:34;;;;;;;;;;;22.80;48.40;;;;;;6088041;23;20645;-64
2022/12/24 11:56:05;;;;;;;6.38;2.75;;;22.70;48.50;;;;;;6087651;23;19924;-64
2022/12/24 11:58:43;;;;;;;6.30;2.78;;;22.70;48.60;;;;;;6088650;23;20019;-65
2022/12/24 12:01:40;;;;;;;7.53;2.83;;;22.70;48.60;;;;;;6086430;23;20501;-64
2022/12/24 12:04:16;;;;;;;7.97;3.20;;;22.70;48.70;;;;;;6087024;23;20068;-65
2022/12/24 12:06:49;;;;;;;7.95;3.08;;;22.70;48.80;;;;;;6088461;23;20022;-65
2022/12/24 12:09:41;;;;;;;8.38;3.00;;;22.80;48.90;;;;;;6087691;23;20093;-62
2022/12/24 12:12:22;;;;;;;7.75;3.33;;;22.80;48.80;;;;;;6087586;23;20065;-62
2022/12/24 12:14:54;;;;;;;8.82;3.10;;;22.80;48.90;;;;;;6087052;23;20086;-62
2022/12/24 12:17:53;;;;;;;15.10;3.53;;;22.80;49.00;;;;;;6086424;23;20025;-63
2022/12/24 12:20:40;;;;;;;7.93;2.70;;;22.80;49.10;;;;;;6087333;23;20084;-64
2022/12/24 12:23:14;;;;;;;10.48;2.72;;;22.80;49.00;;;;;;6084723;23;20312;-61
2022/12/24 12:26:06;;;;;;;11.68;2.67;;;22.80;49.10;;;;;;6087935;23;20018;-63
2022/12/24 12:28:41;;;;;;;8.98;2.75;;;22.80;49.00;;;;;;6084933;23;20129;-62
2022/12/24 12:31:25;;;;;;;9.05;2.95;;;22.80;48.90;;;;;;6084554;23;20014;-63
2022/12/24 12:34:25;;;;;;;11.45;2.80;;;22.80;49.00;;;;;;6086917;23;20471;-62
2022/12/24 12:37:01;;;;;;;9.93;3.30;;;22.80;49.20;;;;;;6085551;23;20615;-63
2022/12/24 12:39:30;;;;;;;8.00;3.03;;;22.80;49.20;;;;;;6084558;23;20435;-62
2022/12/24 12:42:29;;;;;;;7.88;3.05;;;22.80;49.40;;;;;;6083676;23;20077;-61
2022/12/24 12:45:00;;;;;;;7.60;2.78;;;22.80;49.70;;;;;;6085822;23;20023;-65
2022/12/24 12:47:31;;;;;;;8.95;2.97;;;22.80;49.90;;;;;;6085744;23;20022;-62
2022/12/24 12:50:25;;;;;;;9.68;2.78;;;22.80;50.10;;;;;;6088767;23;20677;-62
2022/12/24 12:52:56;;;;;;;7.43;3.10;;;22.80;50.30;;;;;;6086737;23;20018;-62
2022/12/24 12:55:58;;;;;;;7.60;2.58;;;22.80;50.20;;;;;;6087511;23;20522;-62
2022/12/24 12:58:42;;;;;;;7.72;2.83;;;22.90;50.50;;;;;;6088969;23;20450;-64
2022/12/24 13:01:28;;;;;;;9.57;2.92;;;22.90;50.50;;;;;;6086136;23;20093;-65
2022/12/24 13:04:32;;;;;;;7.30;2.78;;;22.90;50.50;;;;;;6071430;23;20325;-63
2022/12/24 13:07:38;;;;;;;8.40;2.65;;;22.90;50.60;;;;;;6063750;23;20027;-63
2022/12/24 13:10:27;;;;;;;9.38;3.03;;;22.90;50.40;;;;;;6088307;23;20025;-62